createdAt,value
2019-02-08T00:00:45.373Z,66.03
2019-02-08T00:03:14.973Z,65.29
2019-02-08T00:05:44.720Z,65.59
2019-02-08T00:08:14.339Z,66.19
2019-02-08T00:10:43.958Z,65.78
2019-02-08T00:13:13.870Z,66.04
2019-02-08T00:15:43.637Z,65.93
2019-02-08T00:18:13.435Z,66.58
2019-02-08T00:20:42.956Z,66.15
2019-02-08T00:23:12.867Z,66.39
2019-02-08T00:25:42.399Z,66.65
2019-02-08T00:28:11.986Z,66.49
2019-02-08T00:30:41.710Z,66.91
2019-02-08T00:33:11.269Z,66.42
2019-02-08T00:35:41.059Z,67.03
2019-02-08T00:38:10.710Z,66.08
2019-02-08T00:40:40.173Z,64.98
2019-02-08T00:43:11.530Z,65.05
2019-02-08T00:45:41.010Z,65.35
2019-02-08T00:48:10.688Z,65.55
2019-02-08T00:50:39.980Z,65.61
2019-02-08T00:53:09.655Z,66.43
2019-02-08T00:55:39.498Z,66.56
2019-02-08T00:58:09.244Z,66.90
2019-02-08T01:00:39.120Z,67.44
2019-02-08T01:03:08.818Z,66.78
2019-02-08T01:05:38.708Z,67.32
2019-02-08T01:08:08.512Z,67.02
2019-02-08T01:10:38.121Z,66.88
2019-02-08T01:13:08.197Z,66.51
2019-02-08T01:15:38.019Z,66.54
2019-02-08T01:18:07.581Z,66.73
2019-02-08T01:20:37.338Z,66.54
2019-02-08T01:23:06.975Z,67.50
2019-02-08T01:25:36.540Z,66.66
2019-02-08T01:28:06.328Z,67.19
2019-02-08T01:30:36.208Z,66.95
2019-02-08T01:33:05.824Z,66.75
2019-02-08T01:35:35.536Z,67.42
2019-02-08T01:38:05.300Z,67.28
2019-02-08T01:40:36.812Z,68.03
2019-02-08T01:43:06.976Z,67.44
2019-02-08T01:45:36.987Z,67.50
2019-02-08T01:48:07.072Z,68.02
2019-02-08T01:50:36.906Z,67.98
2019-02-08T01:53:06.692Z,67.28
2019-02-08T01:55:36.398Z,67.24
2019-02-08T01:58:06.502Z,68.07
2019-02-08T02:00:38.743Z,67.50
2019-02-08T02:03:09.627Z,68.00
2019-02-08T02:05:39.291Z,67.99
2019-02-08T02:08:08.932Z,68.48
2019-02-08T02:10:41.076Z,68.52
2019-02-08T02:13:11.035Z,67.64
2019-02-08T02:15:41.032Z,68.21
2019-02-08T02:18:11.113Z,67.60
2019-02-08T02:20:41.593Z,66.95
2019-02-08T02:23:13.127Z,67.66
2019-02-08T02:25:42.857Z,67.93
2019-02-08T02:28:12.721Z,67.30
2019-02-08T02:30:42.431Z,68.00
2019-02-08T02:33:12.801Z,68.16
2019-02-08T02:35:42.413Z,68.12
2019-02-08T02:38:12.218Z,68.58
2019-02-08T02:40:41.704Z,67.63
2019-02-08T02:43:11.275Z,68.02
2019-02-08T02:45:41.459Z,68.28
2019-02-08T02:48:12.831Z,68.38
2019-02-08T02:50:42.474Z,68.49
2019-02-08T02:53:12.182Z,68.53
2019-02-08T02:55:41.823Z,68.85
2019-02-08T02:58:11.641Z,67.77
2019-02-08T03:00:43.282Z,67.96
2019-02-08T03:03:14.003Z,68.48
2019-02-08T03:05:43.689Z,68.60
2019-02-08T03:08:14.277Z,67.97
2019-02-08T03:10:44.073Z,68.23
2019-02-08T03:13:13.895Z,68.53
2019-02-08T03:15:43.533Z,68.39
2019-02-08T03:18:13.245Z,68.30
2019-02-08T03:20:42.860Z,67.96
2019-02-08T03:23:12.617Z,67.68
2019-02-08T03:25:42.264Z,67.77
2019-02-08T03:28:11.735Z,67.68
2019-02-08T03:30:47.211Z,67.80
2019-02-08T03:33:16.854Z,67.01
2019-02-08T03:35:46.375Z,66.76
2019-02-08T03:38:16.190Z,67.35
2019-02-08T03:40:45.938Z,67.03
2019-02-08T03:43:15.618Z,67.34
2019-02-08T03:45:45.657Z,67.62
2019-02-08T03:48:15.343Z,67.60
2019-02-08T03:50:44.879Z,67.83
2019-02-08T03:53:14.515Z,67.77
2019-02-08T03:55:44.225Z,67.15
2019-02-08T03:58:13.912Z,67.86
2019-02-08T04:00:47.650Z,67.91
2019-02-08T04:03:17.271Z,68.79
2019-02-08T04:05:47.067Z,69.31
2019-02-08T04:08:16.771Z,68.79
2019-02-08T04:10:46.262Z,68.31
2019-02-08T04:13:15.887Z,68.20
2019-02-08T04:15:45.599Z,68.72
2019-02-08T04:18:15.282Z,68.24
2019-02-08T04:20:44.973Z,68.76
2019-02-08T04:23:14.627Z,68.69
2019-02-08T04:25:44.288Z,67.31
2019-02-08T04:28:13.998Z,68.01
2019-02-08T04:30:43.730Z,68.57
2019-02-08T04:33:13.307Z,67.87
2019-02-08T04:35:42.909Z,67.86
2019-02-08T04:38:12.484Z,67.99
2019-02-08T04:40:42.209Z,68.49
2019-02-08T04:43:11.852Z,68.67
2019-02-08T04:45:41.690Z,67.70
2019-02-08T04:48:11.264Z,66.66
2019-02-08T04:50:41.003Z,66.09
2019-02-08T04:53:10.639Z,66.25
2019-02-08T04:55:40.306Z,65.72
2019-02-08T04:58:09.933Z,65.41
2019-02-08T05:00:39.610Z,65.79
2019-02-08T05:03:09.433Z,65.18
2019-02-08T05:05:39.132Z,65.00
2019-02-08T05:08:09.107Z,65.63
2019-02-08T05:10:38.615Z,66.00
2019-02-08T05:13:08.274Z,66.65
2019-02-08T05:15:38.164Z,66.16
2019-02-08T05:18:07.847Z,66.83
2019-02-08T05:20:37.583Z,66.31
2019-02-08T05:23:07.356Z,66.77
2019-02-08T05:25:36.935Z,67.10
2019-02-08T05:28:06.467Z,67.12
2019-02-08T05:30:36.524Z,67.23
2019-02-08T05:33:06.489Z,67.34
2019-02-08T05:35:36.034Z,66.44
2019-02-08T05:38:05.788Z,67.84
2019-02-08T05:40:35.584Z,67.37
2019-02-08T05:43:05.530Z,65.74
2019-02-08T05:45:35.124Z,66.13
2019-02-08T05:48:05.350Z,68.21
2019-02-08T05:50:35.154Z,67.26
2019-02-08T05:53:04.804Z,65.89
2019-02-08T05:55:34.546Z,66.53
2019-02-08T05:58:04.290Z,66.19
2019-02-08T06:00:40.396Z,65.78
2019-02-08T06:03:10.842Z,66.02
2019-02-08T06:05:40.457Z,66.42
2019-02-08T06:08:10.227Z,65.90
2019-02-08T06:10:39.576Z,69.29
2019-02-08T06:13:09.491Z,68.19
2019-02-08T06:15:39.123Z,67.07
2019-02-08T06:18:09.672Z,67.27
2019-02-08T06:20:40.083Z,67.13
2019-02-08T06:23:09.711Z,67.06
2019-02-08T06:25:39.508Z,66.82
2019-02-08T06:28:09.411Z,66.41
2019-02-08T06:30:39.185Z,66.54
2019-02-08T06:33:09.038Z,67.07
2019-02-08T06:35:38.862Z,66.31
2019-02-08T06:38:08.586Z,65.94
2019-02-08T06:40:40.698Z,65.72
2019-02-08T06:43:10.451Z,65.31
2019-02-08T06:45:41.218Z,65.11
2019-02-08T06:48:12.355Z,64.75
2019-02-08T06:50:42.273Z,65.20
2019-02-08T06:53:12.013Z,65.95
2019-02-08T06:55:41.670Z,65.82
2019-02-08T06:58:19.259Z,66.07
2019-02-08T07:00:56.832Z,66.05
2019-02-08T07:03:40.547Z,66.57
2019-02-08T07:06:47.539Z,66.53
2019-02-08T07:09:53.946Z,66.08
2019-02-08T07:12:36.911Z,64.88
2019-02-08T07:15:13.559Z,64.54
2019-02-08T07:19:50.918Z,65.08
2019-02-08T07:22:25.786Z,65.63
2019-02-08T07:24:59.450Z,65.53
2019-02-08T07:27:36.214Z,65.70
2019-02-08T07:30:24.775Z,64.81
2019-02-08T07:33:01.580Z,64.63
2019-02-08T07:36:35.276Z,64.77
2019-02-08T07:39:19.447Z,63.75
2019-02-08T07:41:57.585Z,64.49
2019-02-08T07:44:48.559Z,64.56
2019-02-08T07:47:37.419Z,64.76
2019-02-08T07:50:39.015Z,64.65
2019-02-08T07:53:14.154Z,65.71
2019-02-08T07:55:48.691Z,65.48
2019-02-08T07:58:25.310Z,65.03
2019-02-08T08:01:03.192Z,65.79
2019-02-08T08:04:37.659Z,65.59
2019-02-08T08:09:19.242Z,65.29
2019-02-08T08:12:02.343Z,64.90
2019-02-08T08:14:57.043Z,64.32
2019-02-08T08:18:31.019Z,64.80
2019-02-08T08:21:20.149Z,65.59
2019-02-08T08:23:55.677Z,64.97
2019-02-08T08:26:30.539Z,65.23
2019-02-08T08:29:09.639Z,66.13
2019-02-08T08:31:51.095Z,65.46
2019-02-08T08:34:39.954Z,65.62
2019-02-08T08:37:54.344Z,65.96
2019-02-08T08:42:56.652Z,66.22
2019-02-08T08:45:41.116Z,66.44
2019-02-08T08:48:23.822Z,66.32
2019-02-08T08:51:11.338Z,66.26
2019-02-08T08:55:57.332Z,64.81
2019-02-08T09:00:40.481Z,66.05
2019-02-08T09:06:21.904Z,65.87
2019-02-08T09:09:43.652Z,66.71
2019-02-08T09:13:26.435Z,66.63
2019-02-08T09:16:46.018Z,66.71
2019-02-08T09:21:32.044Z,65.64
2019-02-08T09:24:17.431Z,66.13
2019-02-08T09:27:03.724Z,65.67
2019-02-08T09:31:47.585Z,65.78
2019-02-08T09:34:35.936Z,64.69
2019-02-08T09:39:25.276Z,65.78
2019-02-08T09:42:16.371Z,64.66
2019-02-08T09:45:05.044Z,64.63
2019-02-08T09:47:50.895Z,64.79
2019-02-08T09:53:41.690Z,64.59
2019-02-08T09:58:57.809Z,63.83
2019-02-08T10:01:38.903Z,64.61
2019-02-08T10:04:33.483Z,64.22
2019-02-08T10:07:21.920Z,64.94
2019-02-08T10:10:12.369Z,64.71
2019-02-08T10:12:55.374Z,62.65
2019-02-08T10:16:44.316Z,64.12
2019-02-08T10:20:13.270Z,63.57
2019-02-08T10:25:01.091Z,62.15
2019-02-08T10:27:41.155Z,62.34
2019-02-08T10:32:29.104Z,62.75
2019-02-08T10:35:41.648Z,63.19
2019-02-08T10:41:30.265Z,62.99
2019-02-08T10:45:07.748Z,62.19
2019-02-08T10:47:48.304Z,61.92
2019-02-08T10:50:28.753Z,63.02
2019-02-08T10:53:09.295Z,62.69
2019-02-08T10:55:59.898Z,62.36
2019-02-08T11:00:50.191Z,63.10
2019-02-08T11:03:33.196Z,63.45
2019-02-08T11:06:13.755Z,63.31
2019-02-08T11:11:09.943Z,63.29
2019-02-08T11:13:55.666Z,63.11
2019-02-08T11:16:37.697Z,62.15
2019-02-08T11:19:18.918Z,61.50
2019-02-08T11:21:49.920Z,61.83
2019-02-08T11:24:22.610Z,62.20
2019-02-08T11:26:52.409Z,61.61
2019-02-08T11:29:22.206Z,61.17
2019-02-08T11:31:52.102Z,61.72
2019-02-08T11:34:21.957Z,63.11
2019-02-08T11:36:51.445Z,62.23
2019-02-08T11:39:21.153Z,61.58
2019-02-08T11:41:51.328Z,61.81
2019-02-08T11:44:22.029Z,60.68
2019-02-08T11:46:51.571Z,61.76
2019-02-08T11:49:21.062Z,61.21
2019-02-08T11:51:50.608Z,61.30
2019-02-08T11:54:19.996Z,61.80
2019-02-08T11:56:50.481Z,61.86
2019-02-08T11:59:20.418Z,61.48
2019-02-08T12:01:50.802Z,61.61
2019-02-08T12:04:20.674Z,60.73
2019-02-08T12:06:50.633Z,61.54
2019-02-08T12:09:20.287Z,61.13
2019-02-08T12:11:50.006Z,59.85
2019-02-08T12:14:19.572Z,60.03
2019-02-08T12:16:49.192Z,60.82
2019-02-08T12:19:18.854Z,60.32
2019-02-08T12:21:48.634Z,59.21
2019-02-08T12:24:18.329Z,60.72
2019-02-08T12:26:47.831Z,59.77
2019-02-08T12:29:17.655Z,59.77
2019-02-08T12:31:47.370Z,60.64
2019-02-08T12:34:17.058Z,59.91
2019-02-08T12:36:46.813Z,59.57
2019-02-08T12:39:16.371Z,59.59
2019-02-08T12:41:45.865Z,60.22
2019-02-08T12:44:15.725Z,61.54
2019-02-08T12:46:45.408Z,60.54
2019-02-08T12:49:15.123Z,61.31
2019-02-08T12:51:44.912Z,59.91
2019-02-08T12:54:14.653Z,60.66
2019-02-08T12:56:45.679Z,59.08
2019-02-08T12:59:14.182Z,60.19
2019-02-08T13:01:43.674Z,59.91
2019-02-08T13:04:13.299Z,59.89
2019-02-08T13:06:43.289Z,59.40
2019-02-08T13:09:13.315Z,59.79
2019-02-08T13:11:43.025Z,58.63
2019-02-08T13:14:12.668Z,59.88
2019-02-08T13:16:42.344Z,59.58
2019-02-08T13:19:11.962Z,59.66
2019-02-08T13:21:41.623Z,59.90
2019-02-08T13:24:11.220Z,59.28
2019-02-08T13:26:40.886Z,60.20
2019-02-08T13:29:10.427Z,60.25
2019-02-08T13:31:39.979Z,58.64
2019-02-08T13:34:09.628Z,58.80
2019-02-08T13:36:39.314Z,59.44
2019-02-08T13:39:09.787Z,59.33
2019-02-08T13:41:39.373Z,59.16
2019-02-08T13:44:08.959Z,59.04
2019-02-08T13:46:38.655Z,59.51
2019-02-08T13:49:08.363Z,59.10
2019-02-08T13:51:37.970Z,58.67
2019-02-08T13:54:07.802Z,59.58
2019-02-08T13:56:37.405Z,58.99
2019-02-08T13:59:07.304Z,58.91
2019-02-08T14:01:36.850Z,58.99
2019-02-08T14:04:06.558Z,59.27
2019-02-08T14:06:36.318Z,58.88
2019-02-08T14:09:08.689Z,59.81
2019-02-08T14:11:38.622Z,59.98
2019-02-08T14:14:08.376Z,59.58
2019-02-08T14:16:38.103Z,60.34
2019-02-08T14:19:08.164Z,60.70
2019-02-08T14:21:37.793Z,60.07
2019-02-08T14:24:07.421Z,59.00
2019-02-08T14:26:37.031Z,58.79
2019-02-08T14:29:07.625Z,59.28
2019-02-08T14:31:37.248Z,58.58
2019-02-08T14:34:06.995Z,59.01
2019-02-08T14:36:36.577Z,58.62
2019-02-08T14:39:09.253Z,58.67
2019-02-08T14:41:38.810Z,59.73
2019-02-08T14:44:08.500Z,60.28
2019-02-08T14:46:38.007Z,59.91
2019-02-08T14:49:07.734Z,58.78
2019-02-08T14:51:37.340Z,59.71
2019-02-08T14:54:07.132Z,60.00
2019-02-08T14:56:36.707Z,60.86
2019-02-08T14:59:06.315Z,60.93
2019-02-08T15:01:35.947Z,60.70
2019-02-08T15:04:07.462Z,60.40
2019-02-08T15:06:35.386Z,60.04
2019-02-08T15:09:08.840Z,59.63
2019-02-08T15:11:38.583Z,59.79
2019-02-08T15:14:08.315Z,60.79
2019-02-08T15:16:37.887Z,59.84
2019-02-08T15:19:07.593Z,59.30
2019-02-08T15:21:37.214Z,59.98
2019-02-08T15:24:07.224Z,60.44
2019-02-08T15:26:36.777Z,61.59
2019-02-08T15:29:06.389Z,61.88
2019-02-08T15:31:36.819Z,61.34
2019-02-08T15:34:06.324Z,61.41
2019-02-08T15:36:35.955Z,61.43
2019-02-08T15:39:09.163Z,60.63
2019-02-08T15:41:38.819Z,60.91
2019-02-08T15:44:08.410Z,61.19
2019-02-08T16:04:01.359Z,62.35
2019-02-08T16:06:30.959Z,62.26
2019-02-08T16:09:00.424Z,62.68
2019-02-08T16:11:29.806Z,62.75
2019-02-08T16:13:59.394Z,62.40
2019-02-08T16:16:29.085Z,62.21
2019-02-08T16:18:58.730Z,61.91
2019-02-08T16:38:52.067Z,61.59
2019-02-08T16:41:21.888Z,61.97
2019-02-08T16:43:51.692Z,61.46
2019-02-08T16:46:21.267Z,62.26
2019-02-08T16:48:50.864Z,62.24
2019-02-08T16:51:20.388Z,61.58
2019-02-08T16:53:53.516Z,61.46
2019-02-08T16:56:19.738Z,62.31
2019-02-08T16:58:49.300Z,61.77
2019-02-08T17:01:18.846Z,61.59
2019-02-08T17:03:48.619Z,62.19
2019-02-08T17:06:19.248Z,62.00
2019-02-08T17:08:48.826Z,62.28
2019-02-08T17:11:18.324Z,62.48
2019-02-08T17:13:47.932Z,62.04
2019-02-08T17:50:58.655Z,62.39
2019-02-08T17:53:28.239Z,62.23
2019-02-08T18:13:20.431Z,62.48
2019-02-08T18:15:50.048Z,62.65
2019-02-08T18:35:42.988Z,63.01
2019-02-08T18:38:13.066Z,63.23
2019-02-08T18:40:42.759Z,62.55
2019-02-08T19:00:40.014Z,62.76
2019-02-08T19:03:04.843Z,62.94
2019-02-08T19:05:34.411Z,62.22
2019-02-08T19:08:04.148Z,61.62
2019-02-08T19:10:33.808Z,62.57
2019-02-08T19:13:03.532Z,62.55
2019-02-08T19:15:33.302Z,62.61
2019-02-08T19:18:02.972Z,62.51
2019-02-08T19:37:55.392Z,63.01
2019-02-08T19:40:27.578Z,62.65
2019-02-08T19:42:57.443Z,61.81
2019-02-08T19:45:27.033Z,62.03
2019-02-08T19:47:56.655Z,61.51
2019-02-08T19:50:29.073Z,61.62
2019-02-08T20:10:23.371Z,61.43
2019-02-08T20:12:54.292Z,62.50
2019-02-08T20:15:22.579Z,62.48
2019-02-08T20:35:15.756Z,62.81
2019-02-08T20:37:45.294Z,62.02
2019-02-08T20:40:17.526Z,62.04
2019-02-08T20:42:47.243Z,62.75
2019-02-08T20:45:20.704Z,63.08
2019-02-08T20:47:51.109Z,62.13
2019-02-08T21:07:43.188Z,62.16
2019-02-08T21:10:12.953Z,62.48
2019-02-08T21:12:42.667Z,62.29
2019-02-08T21:15:12.892Z,62.62
2019-02-08T21:17:42.549Z,62.70
2019-02-08T21:20:12.216Z,62.50
2019-02-08T21:22:42.053Z,62.28
2019-02-08T21:25:12.932Z,62.24
2019-02-08T21:27:42.770Z,62.42
2019-02-08T21:30:13.620Z,62.59
2019-02-08T21:32:43.579Z,62.36
2019-02-08T21:35:13.308Z,62.29
2019-02-08T21:37:42.824Z,61.83
2019-02-08T21:40:13.632Z,61.61
2019-02-08T21:42:43.412Z,62.66
2019-02-08T21:45:16.551Z,62.75
2019-02-08T21:47:46.442Z,62.38
2019-02-08T21:50:17.141Z,62.38
2019-02-08T21:52:46.782Z,62.72
2019-02-08T21:55:17.232Z,62.95
2019-02-08T21:57:46.780Z,63.69
2019-02-08T22:00:18.330Z,63.47
2019-02-08T22:02:48.032Z,62.64
2019-02-08T22:05:18.344Z,63.09
2019-02-08T22:07:48.000Z,62.74
2019-02-08T22:10:17.657Z,62.06
2019-02-08T22:12:48.374Z,61.91
2019-02-08T22:15:20.222Z,62.39
2019-02-08T22:17:49.889Z,62.85
2019-02-08T22:20:19.541Z,63.07
2019-02-08T22:22:49.345Z,62.85
2019-02-08T22:25:19.745Z,62.84
2019-02-08T22:27:50.407Z,63.04
2019-02-08T22:30:21.664Z,63.82
2019-02-08T22:32:52.413Z,64.39
2019-02-08T22:52:44.441Z,65.37
2019-02-08T22:55:16.107Z,65.93
2019-02-08T22:57:45.711Z,65.62
2019-02-08T23:00:26.583Z,64.83
2019-02-08T23:02:56.318Z,64.96
2019-02-08T23:05:26.065Z,64.98
2019-02-08T23:25:18.247Z,65.48
2019-02-08T23:27:48.116Z,65.54
2019-02-08T23:47:40.139Z,59.92
2019-02-08T23:50:10.108Z,60.52
2019-02-08T23:52:39.712Z,61.13
2019-02-08T23:55:09.442Z,60.99
2019-02-08T23:57:39.031Z,60.71
